sensor_id;sensor_type;location;lat;lon;timestamp;P1;durP1;ratioP1;P2;durP2;ratioP2
43337;SDS011;28933;52.492;13.434;2022-11-20T00:00:44;12.40;;;8.30;;
43337;SDS011;28933;52.492;13.434;2022-11-20T00:03:10;11.30;;;7.88;;
43337;SDS011;28933;52.492;13.434;2022-11-20T00:05:35;12.60;;;7.80;;
43337;SDS011;28933;52.492;13.434;2022-11-20T00:08:01;12.07;;;8.20;;
43337;SDS011;28933;52.492;13.434;2022-11-20T00:10:27;13.73;;;8.95;;
43337;SDS011;28933;52.492;13.434;2022-11-20T00:12:52;13.00;;;8.70;;
43337;SDS011;28933;52.492;13.434;2022-11-20T00:15:18;11.82;;;8.15;;
43337;SDS011;28933;52.492;13.434;2022-11-20T00:17:43;12.05;;;8.63;;
43337;SDS011;28933;52.492;13.434;2022-11-20T00:20:09;12.40;;;8.13;;
43337;SDS011;28933;52.492;13.434;2022-11-20T00:22:35;12.18;;;8.45;;
43337;SDS011;28933;52.492;13.434;2022-11-20T00:25:01;12.18;;;8.40;;
43337;SDS011;28933;52.492;13.434;2022-11-20T00:27:28;10.95;;;7.93;;
43337;SDS011;28933;52.492;13.434;2022-11-20T00:29:53;10.80;;;7.47;;
43337;SDS011;28933;52.492;13.434;2022-11-20T00:32:19;11.38;;;8.43;;
43337;SDS011;28933;52.492;13.434;2022-11-20T00:34:45;11.30;;;7.90;;
43337;SDS011;28933;52.492;13.434;2022-11-20T00:37:10;11.88;;;7.68;;
43337;SDS011;28933;52.492;13.434;2022-11-20T00:39:36;12.70;;;7.60;;
43337;SDS011;28933;52.492;13.434;2022-11-20T00:42:01;12.98;;;8.73;;
43337;SDS011;28933;52.492;13.434;2022-11-20T00:44:27;13.48;;;8.63;;
43337;SDS011;28933;52.492;13.434;2022-11-20T00:46:53;12.77;;;8.63;;
43337;SDS011;28933;52.492;13.434;2022-11-20T00:49:18;12.80;;;9.43;;
43337;SDS011;28933;52.492;13.434;2022-11-20T00:51:44;13.48;;;8.93;;
43337;SDS011;28933;52.492;13.434;2022-11-20T00:54:10;13.20;;;8.30;;
43337;SDS011;28933;52.492;13.434;2022-11-20T00:56:36;11.32;;;8.20;;
43337;SDS011;28933;52.492;13.434;2022-11-20T00:59:01;14.13;;;9.68;;
43337;SDS011;28933;52.492;13.434;2022-11-20T01:01:29;12.80;;;8.13;;
43337;SDS011;28933;52.492;13.434;2022-11-20T01:03:55;13.32;;;9.02;;
43337;SDS011;28933;52.492;13.434;2022-11-20T01:06:24;12.15;;;8.00;;
43337;SDS011;28933;52.492;13.434;2022-11-20T01:08:52;12.38;;;7.95;;
43337;SDS011;28933;52.492;13.434;2022-11-20T01:11:20;12.32;;;8.57;;
43337;SDS011;28933;52.492;13.434;2022-11-20T01:13:49;14.35;;;8.10;;
43337;SDS011;28933;52.492;13.434;2022-11-20T01:16:17;13.32;;;8.52;;
43337;SDS011;28933;52.492;13.434;2022-11-20T01:18:56;11.77;;;8.15;;
43337;SDS011;28933;52.492;13.434;2022-11-20T01:21:24;13.63;;;8.85;;
43337;SDS011;28933;52.492;13.434;2022-11-20T01:23:54;11.95;;;8.52;;
43337;SDS011;28933;52.492;13.434;2022-11-20T01:26:25;13.23;;;8.85;;
43337;SDS011;28933;52.492;13.434;2022-11-20T01:28:56;14.13;;;8.68;;
43337;SDS011;28933;52.492;13.434;2022-11-20T01:31:23;11.60;;;9.15;;
43337;SDS011;28933;52.492;13.434;2022-11-20T01:33:51;14.95;;;9.30;;
43337;SDS011;28933;52.492;13.434;2022-11-20T01:36:19;13.65;;;8.15;;
43337;SDS011;28933;52.492;13.434;2022-11-20T01:38:46;16.15;;;9.63;;
43337;SDS011;28933;52.492;13.434;2022-11-20T01:41:13;13.25;;;9.00;;
43337;SDS011;28933;52.492;13.434;2022-11-20T01:43:59;12.98;;;8.88;;
43337;SDS011;28933;52.492;13.434;2022-11-20T01:46:28;11.95;;;8.70;;
43337;SDS011;28933;52.492;13.434;2022-11-20T01:51:47;13.00;;;8.35;;
43337;SDS011;28933;52.492;13.434;2022-11-20T01:54:25;13.55;;;8.75;;
43337;SDS011;28933;52.492;13.434;2022-11-20T01:56:59;14.68;;;9.60;;
43337;SDS011;28933;52.492;13.434;2022-11-20T01:59:26;12.98;;;8.98;;
43337;SDS011;28933;52.492;13.434;2022-11-20T02:01:54;14.02;;;8.40;;
43337;SDS011;28933;52.492;13.434;2022-11-20T02:04:20;14.40;;;9.27;;
43337;SDS011;28933;52.492;13.434;2022-11-20T02:06:51;14.32;;;10.52;;
43337;SDS011;28933;52.492;13.434;2022-11-20T02:09:24;13.45;;;8.15;;
43337;SDS011;28933;52.492;13.434;2022-11-20T02:11:49;14.48;;;8.30;;
43337;SDS011;28933;52.492;13.434;2022-11-20T02:14:15;13.50;;;8.13;;
43337;SDS011;28933;52.492;13.434;2022-11-20T02:16:44;12.90;;;8.63;;
43337;SDS011;28933;52.492;13.434;2022-11-20T02:19:28;13.98;;;8.88;;
43337;SDS011;28933;52.492;13.434;2022-11-20T02:22:00;14.03;;;8.63;;
43337;SDS011;28933;52.492;13.434;2022-11-20T02:24:34;13.80;;;9.50;;
43337;SDS011;28933;52.492;13.434;2022-11-20T02:27:10;12.68;;;8.77;;
43337;SDS011;28933;52.492;13.434;2022-11-20T02:29:46;11.13;;;8.13;;
43337;SDS011;28933;52.492;13.434;2022-11-20T02:32:36;10.85;;;7.88;;
43337;SDS011;28933;52.492;13.434;2022-11-20T02:35:45;12.98;;;9.05;;
43337;SDS011;28933;52.492;13.434;2022-11-20T02:37:56;10.93;;;7.65;;
43337;SDS011;28933;52.492;13.434;2022-11-20T02:40:24;13.05;;;8.80;;
43337;SDS011;28933;52.492;13.434;2022-11-20T02:42:53;16.38;;;8.95;;
43337;SDS011;28933;52.492;13.434;2022-11-20T02:45:20;14.00;;;9.23;;
43337;SDS011;28933;52.492;13.434;2022-11-20T02:47:46;17.35;;;9.38;;
43337;SDS011;28933;52.492;13.434;2022-11-20T02:50:11;14.13;;;9.73;;
43337;SDS011;28933;52.492;13.434;2022-11-20T02:52:37;14.85;;;9.52;;
43337;SDS011;28933;52.492;13.434;2022-11-20T02:55:03;16.90;;;9.45;;
43337;SDS011;28933;52.492;13.434;2022-11-20T02:57:29;11.95;;;8.45;;
43337;SDS011;28933;52.492;13.434;2022-11-20T02:59:54;13.25;;;8.73;;
43337;SDS011;28933;52.492;13.434;2022-11-20T03:02:20;12.38;;;8.55;;
43337;SDS011;28933;52.492;13.434;2022-11-20T03:04:46;12.40;;;8.10;;
43337;SDS011;28933;52.492;13.434;2022-11-20T03:07:12;12.48;;;8.88;;
43337;SDS011;28933;52.492;13.434;2022-11-20T03:09:38;13.77;;;9.05;;
43337;SDS011;28933;52.492;13.434;2022-11-20T03:12:04;13.65;;;9.13;;
43337;SDS011;28933;52.492;13.434;2022-11-20T03:14:30;12.65;;;8.93;;
43337;SDS011;28933;52.492;13.434;2022-11-20T03:16:55;15.27;;;9.07;;
43337;SDS011;28933;52.492;13.434;2022-11-20T03:19:21;14.07;;;9.32;;
43337;SDS011;28933;52.492;13.434;2022-11-20T03:21:47;15.02;;;9.50;;
43337;SDS011;28933;52.492;13.434;2022-11-20T03:24:13;14.02;;;9.52;;
43337;SDS011;28933;52.492;13.434;2022-11-20T03:26:39;15.13;;;8.85;;
43337;SDS011;28933;52.492;13.434;2022-11-20T03:29:05;13.18;;;9.27;;
43337;SDS011;28933;52.492;13.434;2022-11-20T03:31:37;14.07;;;8.35;;
43337;SDS011;28933;52.492;13.434;2022-11-20T03:34:06;13.10;;;8.90;;
43337;SDS011;28933;52.492;13.434;2022-11-20T03:36:32;12.70;;;8.82;;
43337;SDS011;28933;52.492;13.434;2022-11-20T03:38:58;12.90;;;8.77;;
43337;SDS011;28933;52.492;13.434;2022-11-20T03:41:25;15.02;;;10.38;;
43337;SDS011;28933;52.492;13.434;2022-11-20T03:43:53;14.55;;;9.77;;
43337;SDS011;28933;52.492;13.434;2022-11-20T03:46:20;15.88;;;10.02;;
43337;SDS011;28933;52.492;13.434;2022-11-20T03:48:47;14.23;;;9.82;;
43337;SDS011;28933;52.492;13.434;2022-11-20T03:51:14;13.88;;;9.90;;
43337;SDS011;28933;52.492;13.434;2022-11-20T03:53:41;15.60;;;9.43;;
43337;SDS011;28933;52.492;13.434;2022-11-20T03:56:09;14.27;;;9.40;;
43337;SDS011;28933;52.492;13.434;2022-11-20T03:58:37;12.82;;;8.45;;
43337;SDS011;28933;52.492;13.434;2022-11-20T04:04:00;12.93;;;9.05;;
43337;SDS011;28933;52.492;13.434;2022-11-20T04:06:28;12.80;;;9.00;;
43337;SDS011;28933;52.492;13.434;2022-11-20T04:08:55;12.98;;;8.88;;
43337;SDS011;28933;52.492;13.434;2022-11-20T04:11:29;13.07;;;8.63;;
43337;SDS011;28933;52.492;13.434;2022-11-20T04:13:57;14.27;;;9.53;;
43337;SDS011;28933;52.492;13.434;2022-11-20T04:16:24;12.88;;;8.70;;
43337;SDS011;28933;52.492;13.434;2022-11-20T04:18:54;14.57;;;9.38;;
43337;SDS011;28933;52.492;13.434;2022-11-20T04:21:23;13.70;;;9.50;;
43337;SDS011;28933;52.492;13.434;2022-11-20T04:23:50;14.88;;;9.30;;
43337;SDS011;28933;52.492;13.434;2022-11-20T04:26:17;13.77;;;9.43;;
43337;SDS011;28933;52.492;13.434;2022-11-20T04:28:45;14.68;;;9.93;;
43337;SDS011;28933;52.492;13.434;2022-11-20T04:31:16;14.82;;;9.50;;
43337;SDS011;28933;52.492;13.434;2022-11-20T04:33:43;14.52;;;9.48;;
43337;SDS011;28933;52.492;13.434;2022-11-20T04:36:10;14.30;;;8.68;;
43337;SDS011;28933;52.492;13.434;2022-11-20T04:38:37;13.73;;;9.00;;
43337;SDS011;28933;52.492;13.434;2022-11-20T04:41:03;15.18;;;10.07;;
43337;SDS011;28933;52.492;13.434;2022-11-20T04:43:31;14.40;;;9.45;;
43337;SDS011;28933;52.492;13.434;2022-11-20T04:45:57;14.20;;;10.00;;
43337;SDS011;28933;52.492;13.434;2022-11-20T04:48:25;14.23;;;9.65;;
43337;SDS011;28933;52.492;13.434;2022-11-20T04:50:52;14.05;;;9.73;;
43337;SDS011;28933;52.492;13.434;2022-11-20T04:53:18;13.75;;;9.32;;
43337;SDS011;28933;52.492;13.434;2022-11-20T04:55:44;16.30;;;10.60;;
43337;SDS011;28933;52.492;13.434;2022-11-20T04:58:11;14.85;;;9.50;;
43337;SDS011;28933;52.492;13.434;2022-11-20T05:00:38;14.85;;;9.45;;
43337;SDS011;28933;52.492;13.434;2022-11-20T05:03:04;14.13;;;9.75;;
43337;SDS011;28933;52.492;13.434;2022-11-20T05:05:30;15.70;;;9.48;;
43337;SDS011;28933;52.492;13.434;2022-11-20T05:07:57;15.73;;;9.63;;
43337;SDS011;28933;52.492;13.434;2022-11-20T05:10:25;14.68;;;9.55;;
43337;SDS011;28933;52.492;13.434;2022-11-20T05:12:51;13.60;;;9.38;;
43337;SDS011;28933;52.492;13.434;2022-11-20T05:15:19;14.45;;;9.20;;
43337;SDS011;28933;52.492;13.434;2022-11-20T05:17:48;13.10;;;9.50;;
43337;SDS011;28933;52.492;13.434;2022-11-20T05:20:14;16.00;;;9.98;;
43337;SDS011;28933;52.492;13.434;2022-11-20T05:22:40;13.88;;;9.10;;
43337;SDS011;28933;52.492;13.434;2022-11-20T05:25:06;15.70;;;9.43;;
43337;SDS011;28933;52.492;13.434;2022-11-20T05:27:32;14.90;;;10.10;;
43337;SDS011;28933;52.492;13.434;2022-11-20T05:29:58;15.15;;;9.82;;
43337;SDS011;28933;52.492;13.434;2022-11-20T05:32:24;15.55;;;9.75;;
43337;SDS011;28933;52.492;13.434;2022-11-20T05:34:50;13.98;;;10.05;;
43337;SDS011;28933;52.492;13.434;2022-11-20T05:37:16;12.98;;;9.55;;
43337;SDS011;28933;52.492;13.434;2022-11-20T05:39:42;13.98;;;9.48;;
43337;SDS011;28933;52.492;13.434;2022-11-20T05:42:07;15.55;;;10.43;;
43337;SDS011;28933;52.492;13.434;2022-11-20T05:44:52;13.13;;;8.97;;
43337;SDS011;28933;52.492;13.434;2022-11-20T05:47:18;16.27;;;10.70;;
43337;SDS011;28933;52.492;13.434;2022-11-20T05:49:44;14.95;;;10.35;;
43337;SDS011;28933;52.492;13.434;2022-11-20T05:52:10;13.98;;;9.77;;
43337;SDS011;28933;52.492;13.434;2022-11-20T05:54:36;13.10;;;9.55;;
43337;SDS011;28933;52.492;13.434;2022-11-20T05:57:02;17.05;;;11.63;;
43337;SDS011;28933;52.492;13.434;2022-11-20T05:59:27;13.23;;;9.60;;
43337;SDS011;28933;52.492;13.434;2022-11-20T06:01:54;18.52;;;10.40;;
43337;SDS011;28933;52.492;13.434;2022-11-20T06:04:20;14.32;;;9.43;;
43337;SDS011;28933;52.492;13.434;2022-11-20T06:06:46;14.07;;;9.43;;
43337;SDS011;28933;52.492;13.434;2022-11-20T06:09:11;22.90;;;10.57;;
43337;SDS011;28933;52.492;13.434;2022-11-20T06:11:37;15.07;;;10.57;;
43337;SDS011;28933;52.492;13.434;2022-11-20T06:14:03;14.32;;;9.75;;
43337;SDS011;28933;52.492;13.434;2022-11-20T06:16:29;15.23;;;9.70;;
43337;SDS011;28933;52.492;13.434;2022-11-20T06:18:54;13.30;;;9.43;;
43337;SDS011;28933;52.492;13.434;2022-11-20T06:21:21;18.58;;;10.25;;
43337;SDS011;28933;52.492;13.434;2022-11-20T06:23:47;14.13;;;10.00;;
43337;SDS011;28933;52.492;13.434;2022-11-20T06:26:15;13.48;;;10.90;;
43337;SDS011;28933;52.492;13.434;2022-11-20T06:28:43;16.02;;;10.25;;
43337;SDS011;28933;52.492;13.434;2022-11-20T06:31:10;13.85;;;9.80;;
43337;SDS011;28933;52.492;13.434;2022-11-20T06:33:38;16.55;;;10.38;;
43337;SDS011;28933;52.492;13.434;2022-11-20T06:36:04;15.50;;;10.60;;
43337;SDS011;28933;52.492;13.434;2022-11-20T06:38:30;14.85;;;10.02;;
43337;SDS011;28933;52.492;13.434;2022-11-20T06:40:56;14.82;;;9.88;;
43337;SDS011;28933;52.492;13.434;2022-11-20T06:43:22;17.70;;;10.60;;
43337;SDS011;28933;52.492;13.434;2022-11-20T06:45:52;18.00;;;10.85;;
43337;SDS011;28933;52.492;13.434;2022-11-20T06:48:19;14.35;;;9.60;;
43337;SDS011;28933;52.492;13.434;2022-11-20T06:50:45;16.10;;;9.88;;
43337;SDS011;28933;52.492;13.434;2022-11-20T06:53:11;16.23;;;9.88;;
43337;SDS011;28933;52.492;13.434;2022-11-20T06:55:36;14.77;;;11.15;;
43337;SDS011;28933;52.492;13.434;2022-11-20T06:58:06;17.75;;;10.43;;
43337;SDS011;28933;52.492;13.434;2022-11-20T07:00:32;15.55;;;10.40;;
43337;SDS011;28933;52.492;13.434;2022-11-20T07:02:57;14.95;;;10.18;;
43337;SDS011;28933;52.492;13.434;2022-11-20T07:05:23;16.27;;;10.10;;
43337;SDS011;28933;52.492;13.434;2022-11-20T07:07:50;15.02;;;9.77;;
43337;SDS011;28933;52.492;13.434;2022-11-20T07:10:16;14.32;;;10.18;;
43337;SDS011;28933;52.492;13.434;2022-11-20T07:12:48;16.67;;;10.23;;
43337;SDS011;28933;52.492;13.434;2022-11-20T07:15:17;17.33;;;10.20;;
43337;SDS011;28933;52.492;13.434;2022-11-20T07:17:45;16.08;;;9.57;;
43337;SDS011;28933;52.492;13.434;2022-11-20T07:20:11;12.80;;;9.25;;
43337;SDS011;28933;52.492;13.434;2022-11-20T07:22:37;16.88;;;10.35;;
43337;SDS011;28933;52.492;13.434;2022-11-20T07:25:03;16.52;;;10.32;;
43337;SDS011;28933;52.492;13.434;2022-11-20T07:27:29;14.60;;;9.40;;
43337;SDS011;28933;52.492;13.434;2022-11-20T07:30:02;17.02;;;10.82;;
43337;SDS011;28933;52.492;13.434;2022-11-20T07:32:28;15.30;;;10.02;;
43337;SDS011;28933;52.492;13.434;2022-11-20T07:34:55;16.25;;;10.43;;
43337;SDS011;28933;52.492;13.434;2022-11-20T07:37:22;17.50;;;11.05;;
43337;SDS011;28933;52.492;13.434;2022-11-20T07:39:48;15.20;;;9.80;;
43337;SDS011;28933;52.492;13.434;2022-11-20T07:42:14;17.10;;;10.02;;
43337;SDS011;28933;52.492;13.434;2022-11-20T07:44:39;16.85;;;9.32;;
43337;SDS011;28933;52.492;13.434;2022-11-20T07:47:05;14.77;;;9.75;;
43337;SDS011;28933;52.492;13.434;2022-11-20T07:49:30;15.95;;;10.07;;
43337;SDS011;28933;52.492;13.434;2022-11-20T07:51:56;14.77;;;10.10;;
43337;SDS011;28933;52.492;13.434;2022-11-20T07:54:22;16.45;;;10.15;;
43337;SDS011;28933;52.492;13.434;2022-11-20T07:56:49;15.65;;;10.30;;
43337;SDS011;28933;52.492;13.434;2022-11-20T07:59:14;14.75;;;9.65;;
43337;SDS011;28933;52.492;13.434;2022-11-20T08:01:41;17.15;;;10.13;;
43337;SDS011;28933;52.492;13.434;2022-11-20T08:04:07;14.80;;;10.65;;
43337;SDS011;28933;52.492;13.434;2022-11-20T08:06:33;15.07;;;10.27;;
43337;SDS011;28933;52.492;13.434;2022-11-20T08:08:59;16.70;;;10.65;;
43337;SDS011;28933;52.492;13.434;2022-11-20T08:11:25;16.10;;;10.23;;
43337;SDS011;28933;52.492;13.434;2022-11-20T08:14:09;15.27;;;9.97;;
43337;SDS011;28933;52.492;13.434;2022-11-20T08:16:41;15.93;;;10.52;;
43337;SDS011;28933;52.492;13.434;2022-11-20T08:19:09;16.48;;;10.35;;
43337;SDS011;28933;52.492;13.434;2022-11-20T08:21:35;17.02;;;10.45;;
43337;SDS011;28933;52.492;13.434;2022-11-20T08:24:01;17.40;;;10.80;;
43337;SDS011;28933;52.492;13.434;2022-11-20T08:26:26;16.20;;;10.70;;
43337;SDS011;28933;52.492;13.434;2022-11-20T08:28:53;17.85;;;10.30;;
43337;SDS011;28933;52.492;13.434;2022-11-20T08:31:20;16.13;;;10.98;;
43337;SDS011;28933;52.492;13.434;2022-11-20T08:33:47;14.82;;;10.30;;
43337;SDS011;28933;52.492;13.434;2022-11-20T08:36:13;15.82;;;9.65;;
43337;SDS011;28933;52.492;13.434;2022-11-20T08:38:39;19.08;;;11.38;;
43337;SDS011;28933;52.492;13.434;2022-11-20T08:41:05;17.85;;;11.43;;
43337;SDS011;28933;52.492;13.434;2022-11-20T08:44:10;16.95;;;10.60;;
43337;SDS011;28933;52.492;13.434;2022-11-20T08:46:38;16.77;;;10.77;;
43337;SDS011;28933;52.492;13.434;2022-11-20T08:49:07;17.95;;;10.77;;
43337;SDS011;28933;52.492;13.434;2022-11-20T08:51:37;15.27;;;10.68;;
43337;SDS011;28933;52.492;13.434;2022-11-20T08:54:03;16.77;;;11.20;;
43337;SDS011;28933;52.492;13.434;2022-11-20T08:56:30;14.40;;;10.18;;
43337;SDS011;28933;52.492;13.434;2022-11-20T08:58:56;16.35;;;10.40;;
43337;SDS011;28933;52.492;13.434;2022-11-20T09:01:22;17.88;;;11.30;;
43337;SDS011;28933;52.492;13.434;2022-11-20T09:03:48;15.25;;;9.93;;
43337;SDS011;28933;52.492;13.434;2022-11-20T09:06:14;16.15;;;10.93;;
43337;SDS011;28933;52.492;13.434;2022-11-20T09:08:41;18.42;;;10.52;;
43337;SDS011;28933;52.492;13.434;2022-11-20T09:11:07;15.05;;;10.43;;
43337;SDS011;28933;52.492;13.434;2022-11-20T09:13:34;16.02;;;10.20;;
43337;SDS011;28933;52.492;13.434;2022-11-20T09:16:04;15.85;;;10.20;;
43337;SDS011;28933;52.492;13.434;2022-11-20T09:18:32;14.18;;;9.75;;
43337;SDS011;28933;52.492;13.434;2022-11-20T09:20:59;15.77;;;11.15;;
43337;SDS011;28933;52.492;13.434;2022-11-20T09:23:26;14.75;;;9.45;;
43337;SDS011;28933;52.492;13.434;2022-11-20T09:25:53;16.25;;;10.63;;
43337;SDS011;28933;52.492;13.434;2022-11-20T09:28:21;15.75;;;10.18;;
43337;SDS011;28933;52.492;13.434;2022-11-20T09:30:47;15.13;;;10.48;;
43337;SDS011;28933;52.492;13.434;2022-11-20T09:33:13;15.32;;;10.15;;
43337;SDS011;28933;52.492;13.434;2022-11-20T09:35:38;16.33;;;10.80;;
43337;SDS011;28933;52.492;13.434;2022-11-20T09:38:07;15.60;;;11.45;;
43337;SDS011;28933;52.492;13.434;2022-11-20T09:40:35;16.23;;;10.65;;
43337;SDS011;28933;52.492;13.434;2022-11-20T09:54:56;16.10;;;10.82;;
43337;SDS011;28933;52.492;13.434;2022-11-20T09:57:18;19.75;;;12.02;;
43337;SDS011;28933;52.492;13.434;2022-11-20T09:59:59;16.60;;;10.88;;
43337;SDS011;28933;52.492;13.434;2022-11-20T10:02:28;16.70;;;11.10;;
43337;SDS011;28933;52.492;13.434;2022-11-20T10:05:04;17.15;;;10.93;;
43337;SDS011;28933;52.492;13.434;2022-11-20T10:07:37;17.30;;;11.15;;
43337;SDS011;28933;52.492;13.434;2022-11-20T10:10:15;17.02;;;11.40;;
43337;SDS011;28933;52.492;13.434;2022-11-20T10:29:01;15.43;;;10.05;;
43337;SDS011;28933;52.492;13.434;2022-11-20T10:31:42;19.30;;;11.13;;
43337;SDS011;28933;52.492;13.434;2022-11-20T10:37:35;16.75;;;10.02;;
43337;SDS011;28933;52.492;13.434;2022-11-20T10:47:59;16.20;;;10.65;;
43337;SDS011;28933;52.492;13.434;2022-11-20T10:56:46;13.85;;;9.85;;
43337;SDS011;28933;52.492;13.434;2022-11-20T11:01:59;18.10;;;11.00;;
43337;SDS011;28933;52.492;13.434;2022-11-20T11:04:30;18.13;;;11.57;;
43337;SDS011;28933;52.492;13.434;2022-11-20T11:07:14;17.17;;;10.82;;
43337;SDS011;28933;52.492;13.434;2022-11-20T11:09:43;17.10;;;10.85;;
43337;SDS011;28933;52.492;13.434;2022-11-20T11:12:11;17.58;;;10.25;;
43337;SDS011;28933;52.492;13.434;2022-11-20T11:14:41;15.45;;;10.90;;
43337;SDS011;28933;52.492;13.434;2022-11-20T11:17:17;21.40;;;13.05;;
43337;SDS011;28933;52.492;13.434;2022-11-20T11:20:07;17.60;;;11.18;;
43337;SDS011;28933;52.492;13.434;2022-11-20T11:22:53;17.60;;;11.13;;
43337;SDS011;28933;52.492;13.434;2022-11-20T11:25:28;15.13;;;10.30;;
43337;SDS011;28933;52.492;13.434;2022-11-20T11:28:02;19.00;;;11.40;;
43337;SDS011;28933;52.492;13.434;2022-11-20T11:30:40;16.08;;;10.95;;
43337;SDS011;28933;52.492;13.434;2022-11-20T11:33:12;12.90;;;9.27;;
43337;SDS011;28933;52.492;13.434;2022-11-20T11:35:45;13.88;;;9.15;;
43337;SDS011;28933;52.492;13.434;2022-11-20T11:38:21;15.65;;;10.15;;
43337;SDS011;28933;52.492;13.434;2022-11-20T11:41:17;16.63;;;9.43;;
43337;SDS011;28933;52.492;13.434;2022-11-20T11:43:53;15.15;;;9.38;;
43337;SDS011;28933;52.492;13.434;2022-11-20T11:46:49;15.48;;;10.32;;
43337;SDS011;28933;52.492;13.434;2022-11-20T11:49:20;16.40;;;9.38;;
43337;SDS011;28933;52.492;13.434;2022-11-20T11:57:14;13.05;;;9.60;;
43337;SDS011;28933;52.492;13.434;2022-11-20T12:02:54;14.85;;;9.70;;
43337;SDS011;28933;52.492;13.434;2022-11-20T12:08:19;15.65;;;9.68;;
43337;SDS011;28933;52.492;13.434;2022-11-20T12:11:11;11.68;;;8.05;;
43337;SDS011;28933;52.492;13.434;2022-11-20T12:16:18;12.85;;;8.50;;
43337;SDS011;28933;52.492;13.434;2022-11-20T12:18:46;15.10;;;9.73;;
43337;SDS011;28933;52.492;13.434;2022-11-20T12:21:19;13.25;;;9.10;;
43337;SDS011;28933;52.492;13.434;2022-11-20T12:34:24;15.20;;;9.23;;
43337;SDS011;28933;52.492;13.434;2022-11-20T12:40:06;13.52;;;9.02;;
43337;SDS011;28933;52.492;13.434;2022-11-20T12:53:55;15.50;;;9.18;;
43337;SDS011;28933;52.492;13.434;2022-11-20T12:56:45;13.70;;;9.52;;
43337;SDS011;28933;52.492;13.434;2022-11-20T12:59:41;12.85;;;8.02;;
43337;SDS011;28933;52.492;13.434;2022-11-20T13:02:27;11.48;;;7.75;;
43337;SDS011;28933;52.492;13.434;2022-11-20T13:08:25;9.57;;;6.65;;
43337;SDS011;28933;52.492;13.434;2022-11-20T13:18:54;9.18;;;6.82;;
43337;SDS011;28933;52.492;13.434;2022-11-20T13:21:35;10.75;;;7.28;;
43337;SDS011;28933;52.492;13.434;2022-11-20T13:29:33;9.15;;;5.80;;
43337;SDS011;28933;52.492;13.434;2022-11-20T13:32:13;7.88;;;5.45;;
43337;SDS011;28933;52.492;13.434;2022-11-20T13:37:30;11.55;;;6.30;;
43337;SDS011;28933;52.492;13.434;2022-11-20T13:43:02;10.15;;;6.85;;
43337;SDS011;28933;52.492;13.434;2022-11-20T13:45:35;9.70;;;5.93;;
43337;SDS011;28933;52.492;13.434;2022-11-20T13:48:04;7.07;;;5.22;;
43337;SDS011;28933;52.492;13.434;2022-11-20T13:50:46;7.82;;;6.00;;
43337;SDS011;28933;52.492;13.434;2022-11-20T13:54:17;8.38;;;5.68;;
43337;SDS011;28933;52.492;13.434;2022-11-20T13:59:02;11.93;;;6.30;;
43337;SDS011;28933;52.492;13.434;2022-11-20T14:01:38;8.50;;;5.70;;
43337;SDS011;28933;52.492;13.434;2022-11-20T14:04:08;10.88;;;6.55;;
43337;SDS011;28933;52.492;13.434;2022-11-20T14:06:39;11.18;;;6.88;;
43337;SDS011;28933;52.492;13.434;2022-11-20T14:09:24;11.25;;;6.88;;
43337;SDS011;28933;52.492;13.434;2022-11-20T14:11:55;10.60;;;5.80;;
43337;SDS011;28933;52.492;13.434;2022-11-20T14:14:22;9.55;;;6.03;;
43337;SDS011;28933;52.492;13.434;2022-11-20T14:16:49;10.43;;;7.03;;
43337;SDS011;28933;52.492;13.434;2022-11-20T14:21:44;10.23;;;6.75;;
43337;SDS011;28933;52.492;13.434;2022-11-20T14:24:17;12.68;;;7.63;;
43337;SDS011;28933;52.492;13.434;2022-11-20T14:26:45;9.52;;;6.15;;
43337;SDS011;28933;52.492;13.434;2022-11-20T14:29:18;10.35;;;6.28;;
43337;SDS011;28933;52.492;13.434;2022-11-20T14:31:47;9.40;;;6.15;;
43337;SDS011;28933;52.492;13.434;2022-11-20T14:34:21;8.93;;;5.95;;
43337;SDS011;28933;52.492;13.434;2022-11-20T14:36:50;11.75;;;7.13;;
43337;SDS011;28933;52.492;13.434;2022-11-20T14:39:21;8.98;;;5.82;;
43337;SDS011;28933;52.492;13.434;2022-11-20T14:41:57;9.85;;;6.90;;
43337;SDS011;28933;52.492;13.434;2022-11-20T14:44:25;10.15;;;6.40;;
43337;SDS011;28933;52.492;13.434;2022-11-20T14:46:54;9.68;;;6.47;;
43337;SDS011;28933;52.492;13.434;2022-11-20T14:49:20;10.88;;;6.32;;
43337;SDS011;28933;52.492;13.434;2022-11-20T14:51:46;9.57;;;7.13;;
43337;SDS011;28933;52.492;13.434;2022-11-20T14:54:22;8.85;;;5.60;;
43337;SDS011;28933;52.492;13.434;2022-11-20T14:56:59;10.80;;;6.82;;
43337;SDS011;28933;52.492;13.434;2022-11-20T14:59:27;11.07;;;6.50;;
43337;SDS011;28933;52.492;13.434;2022-11-20T15:02:01;8.45;;;6.00;;
43337;SDS011;28933;52.492;13.434;2022-11-20T15:04:46;14.50;;;7.30;;
43337;SDS011;28933;52.492;13.434;2022-11-20T15:07:29;12.10;;;6.95;;
43337;SDS011;28933;52.492;13.434;2022-11-20T15:10:04;11.23;;;6.78;;
43337;SDS011;28933;52.492;13.434;2022-11-20T15:12:52;10.75;;;6.85;;
43337;SDS011;28933;52.492;13.434;2022-11-20T15:17:55;8.70;;;6.28;;
43337;SDS011;28933;52.492;13.434;2022-11-20T15:20:21;10.10;;;6.68;;
43337;SDS011;28933;52.492;13.434;2022-11-20T15:22:51;11.93;;;7.55;;
43337;SDS011;28933;52.492;13.434;2022-11-20T15:25:17;10.13;;;7.28;;
43337;SDS011;28933;52.492;13.434;2022-11-20T15:27:43;10.63;;;7.22;;
43337;SDS011;28933;52.492;13.434;2022-11-20T15:30:14;10.27;;;6.45;;
43337;SDS011;28933;52.492;13.434;2022-11-20T15:32:42;8.20;;;6.28;;
43337;SDS011;28933;52.492;13.434;2022-11-20T15:35:09;9.55;;;6.90;;
43337;SDS011;28933;52.492;13.434;2022-11-20T15:37:35;10.05;;;5.97;;
43337;SDS011;28933;52.492;13.434;2022-11-20T15:40:02;12.70;;;6.80;;
43337;SDS011;28933;52.492;13.434;2022-11-20T15:42:28;10.02;;;6.60;;
43337;SDS011;28933;52.492;13.434;2022-11-20T15:44:54;13.13;;;7.30;;
43337;SDS011;28933;52.492;13.434;2022-11-20T15:47:20;10.80;;;6.75;;
43337;SDS011;28933;52.492;13.434;2022-11-20T15:49:55;11.52;;;7.35;;
43337;SDS011;28933;52.492;13.434;2022-11-20T15:52:21;11.63;;;7.63;;
43337;SDS011;28933;52.492;13.434;2022-11-20T15:54:46;13.35;;;8.50;;
43337;SDS011;28933;52.492;13.434;2022-11-20T15:57:12;12.52;;;7.35;;
43337;SDS011;28933;52.492;13.434;2022-11-20T15:59:38;12.07;;;7.70;;
43337;SDS011;28933;52.492;13.434;2022-11-20T16:02:12;8.57;;;6.45;;
43337;SDS011;28933;52.492;13.434;2022-11-20T16:04:39;10.60;;;7.30;;
43337;SDS011;28933;52.492;13.434;2022-11-20T16:07:05;10.18;;;7.10;;
43337;SDS011;28933;52.492;13.434;2022-11-20T16:09:30;11.90;;;8.38;;
43337;SDS011;28933;52.492;13.434;2022-11-20T16:11:56;13.55;;;8.38;;
43337;SDS011;28933;52.492;13.434;2022-11-20T16:14:25;11.52;;;7.72;;
43337;SDS011;28933;52.492;13.434;2022-11-20T16:19:36;12.45;;;7.18;;
43337;SDS011;28933;52.492;13.434;2022-11-20T16:22:02;11.88;;;7.60;;
43337;SDS011;28933;52.492;13.434;2022-11-20T16:24:28;19.10;;;10.93;;
43337;SDS011;28933;52.492;13.434;2022-11-20T16:26:54;16.67;;;10.30;;
43337;SDS011;28933;52.492;13.434;2022-11-20T16:29:20;15.57;;;10.52;;
43337;SDS011;28933;52.492;13.434;2022-11-20T16:31:46;17.83;;;10.18;;
43337;SDS011;28933;52.492;13.434;2022-11-20T16:34:11;16.52;;;9.90;;
43337;SDS011;28933;52.492;13.434;2022-11-20T16:36:40;14.73;;;9.05;;